sensor_id;sensor_type;location;lat;lon;timestamp;P1;durP1;ratioP1;P2;durP2;ratioP2
16727;SDS011;8482;54.396;18.590;2022-08-11T00:00:36;2.83;;;1.45;;
16727;SDS011;8482;54.396;18.590;2022-08-11T00:03:10;2.80;;;1.67;;
16727;SDS011;8482;54.396;18.590;2022-08-11T00:05:46;1.92;;;1.50;;
16727;SDS011;8482;54.396;18.590;2022-08-11T00:08:22;1.85;;;1.40;;
16727;SDS011;8482;54.396;18.590;2022-08-11T00:11:01;3.42;;;1.80;;
16727;SDS011;8482;54.396;18.590;2022-08-11T00:13:40;2.00;;;1.42;;
16727;SDS011;8482;54.396;18.590;2022-08-11T00:16:18;2.45;;;1.50;;
16727;SDS011;8482;54.396;18.590;2022-08-11T00:18:49;2.40;;;1.60;;
16727;SDS011;8482;54.396;18.590;2022-08-11T00:21:21;2.28;;;1.45;;
16727;SDS011;8482;54.396;18.590;2022-08-11T00:23:54;2.45;;;1.65;;
16727;SDS011;8482;54.396;18.590;2022-08-11T00:26:27;2.63;;;1.60;;
16727;SDS011;8482;54.396;18.590;2022-08-11T00:28:55;2.42;;;1.48;;
16727;SDS011;8482;54.396;18.590;2022-08-11T00:31:37;2.20;;;1.50;;
16727;SDS011;8482;54.396;18.590;2022-08-11T00:34:12;2.00;;;1.40;;
16727;SDS011;8482;54.396;18.590;2022-08-11T00:36:51;2.75;;;1.60;;
16727;SDS011;8482;54.396;18.590;2022-08-11T00:39:44;1.88;;;1.40;;
16727;SDS011;8482;54.396;18.590;2022-08-11T00:54:07;2.80;;;1.60;;
16727;SDS011;8482;54.396;18.590;2022-08-11T01:00:21;2.10;;;1.50;;
16727;SDS011;8482;54.396;18.590;2022-08-11T01:11:49;2.50;;;1.55;;
16727;SDS011;8482;54.396;18.590;2022-08-11T01:34:12;2.92;;;1.80;;
16727;SDS011;8482;54.396;18.590;2022-08-11T01:44:25;2.85;;;1.90;;
16727;SDS011;8482;54.396;18.590;2022-08-11T01:47:35;3.55;;;1.70;;
16727;SDS011;8482;54.396;18.590;2022-08-11T01:53:37;3.13;;;1.85;;
16727;SDS011;8482;54.396;18.590;2022-08-11T01:59:27;3.38;;;1.70;;
16727;SDS011;8482;54.396;18.590;2022-08-11T02:08:10;3.42;;;1.98;;
16727;SDS011;8482;54.396;18.590;2022-08-11T02:11:04;4.03;;;2.15;;
16727;SDS011;8482;54.396;18.590;2022-08-11T02:17:14;4.05;;;2.10;;
16727;SDS011;8482;54.396;18.590;2022-08-11T02:20:23;3.47;;;1.92;;
16727;SDS011;8482;54.396;18.590;2022-08-11T02:29:24;4.47;;;2.15;;
16727;SDS011;8482;54.396;18.590;2022-08-11T02:32:50;4.32;;;2.00;;
16727;SDS011;8482;54.396;18.590;2022-08-11T02:36:07;4.35;;;2.40;;
16727;SDS011;8482;54.396;18.590;2022-08-11T02:42:04;2.75;;;1.85;;
16727;SDS011;8482;54.396;18.590;2022-08-11T02:56:59;4.32;;;2.30;;
16727;SDS011;8482;54.396;18.590;2022-08-11T02:59:42;4.88;;;2.78;;
16727;SDS011;8482;54.396;18.590;2022-08-11T03:08:49;6.32;;;2.55;;
16727;SDS011;8482;54.396;18.590;2022-08-11T03:14:47;4.35;;;2.65;;
16727;SDS011;8482;54.396;18.590;2022-08-11T03:21:01;5.30;;;3.20;;
16727;SDS011;8482;54.396;18.590;2022-08-11T03:24:02;4.95;;;3.05;;
16727;SDS011;8482;54.396;18.590;2022-08-11T03:26:46;4.43;;;2.50;;
16727;SDS011;8482;54.396;18.590;2022-08-11T03:41:37;5.15;;;2.88;;
16727;SDS011;8482;54.396;18.590;2022-08-11T03:44:37;5.05;;;2.80;;
16727;SDS011;8482;54.396;18.590;2022-08-11T03:47:33;5.05;;;3.10;;
16727;SDS011;8482;54.396;18.590;2022-08-11T03:56:51;5.05;;;2.95;;
16727;SDS011;8482;54.396;18.590;2022-08-11T04:00:06;4.93;;;2.80;;
16727;SDS011;8482;54.396;18.590;2022-08-11T04:03:00;4.22;;;2.70;;
16727;SDS011;8482;54.396;18.590;2022-08-11T04:22:17;5.28;;;2.85;;
16727;SDS011;8482;54.396;18.590;2022-08-11T05:01:39;7.75;;;3.67;;
16727;SDS011;8482;54.396;18.590;2022-08-11T05:04:40;7.45;;;3.58;;
16727;SDS011;8482;54.396;18.590;2022-08-11T05:08:07;4.55;;;3.13;;
16727;SDS011;8482;54.396;18.590;2022-08-11T05:17:22;4.80;;;2.95;;
16727;SDS011;8482;54.396;18.590;2022-08-11T05:20:18;4.40;;;2.63;;
16727;SDS011;8482;54.396;18.590;2022-08-11T05:23:07;5.70;;;3.25;;
16727;SDS011;8482;54.396;18.590;2022-08-11T05:25:54;5.68;;;3.03;;
16727;SDS011;8482;54.396;18.590;2022-08-11T05:28:45;5.28;;;3.03;;
16727;SDS011;8482;54.396;18.590;2022-08-11T05:31:40;5.57;;;3.47;;
16727;SDS011;8482;54.396;18.590;2022-08-11T05:34:33;5.60;;;3.13;;
16727;SDS011;8482;54.396;18.590;2022-08-11T05:39:55;5.18;;;3.08;;
16727;SDS011;8482;54.396;18.590;2022-08-11T05:42:49;5.32;;;2.65;;
16727;SDS011;8482;54.396;18.590;2022-08-11T05:45:43;5.47;;;2.97;;
16727;SDS011;8482;54.396;18.590;2022-08-11T05:48:44;4.25;;;2.25;;
16727;SDS011;8482;54.396;18.590;2022-08-11T05:51:35;6.65;;;3.10;;
16727;SDS011;8482;54.396;18.590;2022-08-11T05:54:29;5.47;;;2.70;;
16727;SDS011;8482;54.396;18.590;2022-08-11T05:57:21;5.57;;;2.70;;
16727;SDS011;8482;54.396;18.590;2022-08-11T05:59:58;5.47;;;2.50;;
16727;SDS011;8482;54.396;18.590;2022-08-11T06:02:29;5.63;;;2.80;;
16727;SDS011;8482;54.396;18.590;2022-08-11T06:04:56;5.30;;;2.90;;
16727;SDS011;8482;54.396;18.590;2022-08-11T06:07:31;5.20;;;2.80;;
16727;SDS011;8482;54.396;18.590;2022-08-11T06:09:58;4.00;;;2.60;;
16727;SDS011;8482;54.396;18.590;2022-08-11T06:12:29;5.07;;;2.90;;
16727;SDS011;8482;54.396;18.590;2022-08-11T06:15:00;4.90;;;2.40;;
16727;SDS011;8482;54.396;18.590;2022-08-11T06:17:30;4.28;;;2.35;;
16727;SDS011;8482;54.396;18.590;2022-08-11T06:20:06;4.47;;;2.30;;
16727;SDS011;8482;54.396;18.590;2022-08-11T06:22:36;4.25;;;2.30;;
16727;SDS011;8482;54.396;18.590;2022-08-11T06:25:05;6.05;;;2.65;;
16727;SDS011;8482;54.396;18.590;2022-08-11T06:27:34;4.70;;;2.80;;
16727;SDS011;8482;54.396;18.590;2022-08-11T06:30:04;4.07;;;2.45;;
16727;SDS011;8482;54.396;18.590;2022-08-11T06:32:37;5.70;;;2.70;;
16727;SDS011;8482;54.396;18.590;2022-08-11T06:46:45;4.75;;;2.55;;
16727;SDS011;8482;54.396;18.590;2022-08-11T06:49:18;6.35;;;3.30;;
16727;SDS011;8482;54.396;18.590;2022-08-11T06:52:07;8.90;;;4.43;;
16727;SDS011;8482;54.396;18.590;2022-08-11T06:54:42;6.75;;;3.47;;
16727;SDS011;8482;54.396;18.590;2022-08-11T06:57:26;7.00;;;3.80;;
16727;SDS011;8482;54.396;18.590;2022-08-11T07:00:10;7.38;;;3.75;;
16727;SDS011;8482;54.396;18.590;2022-08-11T07:02:59;7.55;;;3.70;;
16727;SDS011;8482;54.396;18.590;2022-08-11T07:05:57;5.78;;;3.35;;
16727;SDS011;8482;54.396;18.590;2022-08-11T07:12:08;6.93;;;3.83;;
16727;SDS011;8482;54.396;18.590;2022-08-11T07:15:25;5.72;;;3.10;;
16727;SDS011;8482;54.396;18.590;2022-08-11T07:18:06;5.50;;;3.55;;
16727;SDS011;8482;54.396;18.590;2022-08-11T07:24:16;7.30;;;4.15;;
16727;SDS011;8482;54.396;18.590;2022-08-11T07:27:07;6.82;;;3.40;;
16727;SDS011;8482;54.396;18.590;2022-08-11T07:30:04;6.20;;;3.22;;
16727;SDS011;8482;54.396;18.590;2022-08-11T07:32:36;6.47;;;3.20;;
16727;SDS011;8482;54.396;18.590;2022-08-11T07:35:19;5.95;;;3.70;;
16727;SDS011;8482;54.396;18.590;2022-08-11T07:38:05;5.82;;;3.53;;
16727;SDS011;8482;54.396;18.590;2022-08-11T07:40:36;4.80;;;2.72;;
16727;SDS011;8482;54.396;18.590;2022-08-11T07:43:03;6.43;;;4.03;;
16727;SDS011;8482;54.396;18.590;2022-08-11T07:45:31;5.78;;;3.90;;
16727;SDS011;8482;54.396;18.590;2022-08-11T07:48:17;5.07;;;2.95;;
16727;SDS011;8482;54.396;18.590;2022-08-11T07:51:03;5.13;;;2.80;;
16727;SDS011;8482;54.396;18.590;2022-08-11T07:53:48;4.68;;;3.10;;
16727;SDS011;8482;54.396;18.590;2022-08-11T07:56:16;4.90;;;2.75;;
16727;SDS011;8482;54.396;18.590;2022-08-11T07:58:43;4.60;;;2.75;;
16727;SDS011;8482;54.396;18.590;2022-08-11T08:01:29;5.18;;;3.15;;
16727;SDS011;8482;54.396;18.590;2022-08-11T08:04:15;5.20;;;2.97;;
16727;SDS011;8482;54.396;18.590;2022-08-11T08:07:02;4.88;;;2.83;;
16727;SDS011;8482;54.396;18.590;2022-08-11T08:09:48;4.72;;;2.58;;
16727;SDS011;8482;54.396;18.590;2022-08-11T08:12:35;4.25;;;2.80;;
16727;SDS011;8482;54.396;18.590;2022-08-11T08:15:20;5.53;;;2.75;;
16727;SDS011;8482;54.396;18.590;2022-08-11T08:18:06;4.85;;;2.75;;
16727;SDS011;8482;54.396;18.590;2022-08-11T08:20:37;5.18;;;2.10;;
16727;SDS011;8482;54.396;18.590;2022-08-11T08:23:06;3.53;;;2.35;;
16727;SDS011;8482;54.396;18.590;2022-08-11T08:25:43;4.10;;;2.30;;
16727;SDS011;8482;54.396;18.590;2022-08-11T08:28:16;3.83;;;2.45;;
16727;SDS011;8482;54.396;18.590;2022-08-11T08:30:45;3.78;;;2.08;;
16727;SDS011;8482;54.396;18.590;2022-08-11T08:35:51;3.63;;;2.17;;
16727;SDS011;8482;54.396;18.590;2022-08-11T08:38:42;4.40;;;2.55;;
16727;SDS011;8482;54.396;18.590;2022-08-11T08:41:27;4.50;;;2.38;;
16727;SDS011;8482;54.396;18.590;2022-08-11T08:43:57;4.43;;;2.80;;
16727;SDS011;8482;54.396;18.590;2022-08-11T08:46:35;3.85;;;2.38;;
16727;SDS011;8482;54.396;18.590;2022-08-11T08:49:09;3.70;;;2.40;;
16727;SDS011;8482;54.396;18.590;2022-08-11T08:51:52;3.60;;;2.33;;
16727;SDS011;8482;54.396;18.590;2022-08-11T08:54:24;3.55;;;2.00;;
16727;SDS011;8482;54.396;18.590;2022-08-11T08:57:01;3.72;;;2.25;;
16727;SDS011;8482;54.396;18.590;2022-08-11T08:59:30;3.65;;;2.13;;
16727;SDS011;8482;54.396;18.590;2022-08-11T09:02:03;2.40;;;1.77;;
16727;SDS011;8482;54.396;18.590;2022-08-11T09:04:37;3.40;;;2.30;;
16727;SDS011;8482;54.396;18.590;2022-08-11T09:07:08;4.43;;;2.22;;
16727;SDS011;8482;54.396;18.590;2022-08-11T09:09:43;3.55;;;2.00;;
16727;SDS011;8482;54.396;18.590;2022-08-11T09:12:14;3.05;;;2.00;;
16727;SDS011;8482;54.396;18.590;2022-08-11T09:14:45;3.13;;;2.00;;
16727;SDS011;8482;54.396;18.590;2022-08-11T09:17:30;4.15;;;2.25;;
16727;SDS011;8482;54.396;18.590;2022-08-11T09:20:05;2.97;;;2.00;;
16727;SDS011;8482;54.396;18.590;2022-08-11T09:22:56;2.55;;;1.75;;
16727;SDS011;8482;54.396;18.590;2022-08-11T09:25:46;3.35;;;2.03;;
16727;SDS011;8482;54.396;18.590;2022-08-11T09:28:37;3.13;;;1.70;;
16727;SDS011;8482;54.396;18.590;2022-08-11T09:31:06;2.55;;;1.67;;
16727;SDS011;8482;54.396;18.590;2022-08-11T09:33:36;2.90;;;1.77;;
16727;SDS011;8482;54.396;18.590;2022-08-11T09:36:03;2.67;;;1.60;;
16727;SDS011;8482;54.396;18.590;2022-08-11T09:38:50;3.28;;;1.75;;
16727;SDS011;8482;54.396;18.590;2022-08-11T09:41:36;2.00;;;1.30;;
16727;SDS011;8482;54.396;18.590;2022-08-11T09:44:05;1.70;;;1.33;;
16727;SDS011;8482;54.396;18.590;2022-08-11T09:46:52;1.77;;;1.42;;
16727;SDS011;8482;54.396;18.590;2022-08-11T09:49:23;2.80;;;1.75;;
16727;SDS011;8482;54.396;18.590;2022-08-11T09:51:51;3.13;;;1.77;;
16727;SDS011;8482;54.396;18.590;2022-08-11T09:54:18;2.10;;;1.40;;
16727;SDS011;8482;54.396;18.590;2022-08-11T09:56:47;1.42;;;1.08;;
16727;SDS011;8482;54.396;18.590;2022-08-11T09:59:35;2.42;;;1.40;;
16727;SDS011;8482;54.396;18.590;2022-08-11T10:02:02;2.70;;;1.55;;
16727;SDS011;8482;54.396;18.590;2022-08-11T10:07:06;3.38;;;1.30;;
16727;SDS011;8482;54.396;18.590;2022-08-11T10:09:36;1.52;;;1.00;;
16727;SDS011;8482;54.396;18.590;2022-08-11T10:12:13;1.67;;;1.10;;
16727;SDS011;8482;54.396;18.590;2022-08-11T10:14:55;3.10;;;1.55;;
16727;SDS011;8482;54.396;18.590;2022-08-11T10:17:47;1.63;;;1.20;;
16727;SDS011;8482;54.396;18.590;2022-08-11T10:20:38;1.95;;;1.33;;
16727;SDS011;8482;54.396;18.590;2022-08-11T10:23:06;1.20;;;1.10;;
16727;SDS011;8482;54.396;18.590;2022-08-11T10:25:54;1.55;;;1.20;;
16727;SDS011;8482;54.396;18.590;2022-08-11T10:28:40;2.35;;;1.27;;
16727;SDS011;8482;54.396;18.590;2022-08-11T10:31:08;1.15;;;1.00;;
16727;SDS011;8482;54.396;18.590;2022-08-11T10:33:53;1.10;;;1.00;;
16727;SDS011;8482;54.396;18.590;2022-08-11T10:36:30;2.00;;;1.30;;
16727;SDS011;8482;54.396;18.590;2022-08-11T10:39:13;1.88;;;1.10;;
16727;SDS011;8482;54.396;18.590;2022-08-11T10:41:44;1.40;;;1.10;;
16727;SDS011;8482;54.396;18.590;2022-08-11T10:44:30;1.40;;;1.10;;
16727;SDS011;8482;54.396;18.590;2022-08-11T10:47:12;2.05;;;1.13;;
16727;SDS011;8482;54.396;18.590;2022-08-11T10:49:59;1.77;;;1.17;;
16727;SDS011;8482;54.396;18.590;2022-08-11T10:52:56;1.30;;;0.95;;
16727;SDS011;8482;54.396;18.590;2022-08-11T10:55:44;1.00;;;0.90;;
16727;SDS011;8482;54.396;18.590;2022-08-11T10:58:29;1.40;;;1.00;;
16727;SDS011;8482;54.396;18.590;2022-08-11T11:01:15;1.52;;;1.02;;
16727;SDS011;8482;54.396;18.590;2022-08-11T11:03:51;1.90;;;1.05;;
16727;SDS011;8482;54.396;18.590;2022-08-11T11:09:24;3.75;;;1.13;;
16727;SDS011;8482;54.396;18.590;2022-08-11T11:12:10;1.10;;;1.00;;
16727;SDS011;8482;54.396;18.590;2022-08-11T11:15:03;1.42;;;0.90;;
16727;SDS011;8482;54.396;18.590;2022-08-11T11:17:54;1.08;;;0.93;;
16727;SDS011;8482;54.396;18.590;2022-08-11T11:29:30;1.00;;;0.90;;
16727;SDS011;8482;54.396;18.590;2022-08-11T11:32:39;1.58;;;0.80;;
16727;SDS011;8482;54.396;18.590;2022-08-11T11:37:56;1.48;;;0.80;;
16727;SDS011;8482;54.396;18.590;2022-08-11T11:40:23;1.00;;;0.90;;
16727;SDS011;8482;54.396;18.590;2022-08-11T11:42:52;0.88;;;0.80;;
16727;SDS011;8482;54.396;18.590;2022-08-11T11:45:23;1.20;;;0.93;;
16727;SDS011;8482;54.396;18.590;2022-08-11T11:47:50;1.45;;;1.00;;
16727;SDS011;8482;54.396;18.590;2022-08-11T11:50:26;0.98;;;0.80;;
16727;SDS011;8482;54.396;18.590;2022-08-11T11:52:55;0.80;;;0.80;;
16727;SDS011;8482;54.396;18.590;2022-08-11T11:55:24;1.15;;;0.90;;
16727;SDS011;8482;54.396;18.590;2022-08-11T11:57:52;0.90;;;0.80;;
16727;SDS011;8482;54.396;18.590;2022-08-11T12:00:38;1.15;;;0.80;;
16727;SDS011;8482;54.396;18.590;2022-08-11T12:03:23;1.00;;;0.82;;
16727;SDS011;8482;54.396;18.590;2022-08-11T12:05:51;1.35;;;0.73;;
16727;SDS011;8482;54.396;18.590;2022-08-11T12:08:18;0.70;;;0.70;;
16727;SDS011;8482;54.396;18.590;2022-08-11T12:10:47;1.83;;;0.80;;
16727;SDS011;8482;54.396;18.590;2022-08-11T12:13:39;0.98;;;0.63;;
16727;SDS011;8482;54.396;18.590;2022-08-11T12:16:09;1.00;;;0.80;;
16727;SDS011;8482;54.396;18.590;2022-08-11T12:18:39;0.85;;;0.80;;
16727;SDS011;8482;54.396;18.590;2022-08-11T12:21:07;0.80;;;0.80;;
16727;SDS011;8482;54.396;18.590;2022-08-11T12:23:35;0.93;;;0.82;;
16727;SDS011;8482;54.396;18.590;2022-08-11T12:26:22;1.10;;;1.00;;
16727;SDS011;8482;54.396;18.590;2022-08-11T12:29:08;0.82;;;0.70;;
16727;SDS011;8482;54.396;18.590;2022-08-11T12:31:36;1.25;;;0.80;;
16727;SDS011;8482;54.396;18.590;2022-08-11T12:34:12;1.35;;;0.80;;
16727;SDS011;8482;54.396;18.590;2022-08-11T12:36:40;0.77;;;0.70;;
16727;SDS011;8482;54.396;18.590;2022-08-11T12:39:12;0.80;;;0.80;;
16727;SDS011;8482;54.396;18.590;2022-08-11T12:41:45;1.45;;;0.90;;
16727;SDS011;8482;54.396;18.590;2022-08-11T12:44:30;0.70;;;0.70;;
16727;SDS011;8482;54.396;18.590;2022-08-11T12:47:18;0.93;;;0.85;;
16727;SDS011;8482;54.396;18.590;2022-08-11T12:49:48;0.93;;;0.80;;
16727;SDS011;8482;54.396;18.590;2022-08-11T12:52:48;1.48;;;1.00;;
16727;SDS011;8482;54.396;18.590;2022-08-11T12:55:19;1.10;;;1.00;;
16727;SDS011;8482;54.396;18.590;2022-08-11T12:58:07;1.23;;;0.80;;
16727;SDS011;8482;54.396;18.590;2022-08-11T13:00:43;0.88;;;0.75;;
16727;SDS011;8482;54.396;18.590;2022-08-11T13:03:28;1.10;;;0.90;;
16727;SDS011;8482;54.396;18.590;2022-08-11T13:06:17;0.77;;;0.75;;
16727;SDS011;8482;54.396;18.590;2022-08-11T13:08:48;1.05;;;0.98;;
16727;SDS011;8482;54.396;18.590;2022-08-11T13:11:15;0.85;;;0.85;;
16727;SDS011;8482;54.396;18.590;2022-08-11T13:14:00;1.13;;;0.90;;
16727;SDS011;8482;54.396;18.590;2022-08-11T13:16:32;1.42;;;0.80;;
16727;SDS011;8482;54.396;18.590;2022-08-11T13:19:21;1.20;;;0.82;;
16727;SDS011;8482;54.396;18.590;2022-08-11T13:21:49;0.85;;;0.80;;
16727;SDS011;8482;54.396;18.590;2022-08-11T13:24:17;1.33;;;0.90;;
16727;SDS011;8482;54.396;18.590;2022-08-11T13:26:45;1.25;;;0.80;;
16727;SDS011;8482;54.396;18.590;2022-08-11T13:29:18;0.70;;;0.70;;
16727;SDS011;8482;54.396;18.590;2022-08-11T13:31:50;2.38;;;0.90;;
16727;SDS011;8482;54.396;18.590;2022-08-11T13:34:19;1.25;;;0.98;;
16727;SDS011;8482;54.396;18.590;2022-08-11T13:36:52;0.70;;;0.70;;
16727;SDS011;8482;54.396;18.590;2022-08-11T13:39:22;1.27;;;0.80;;
16727;SDS011;8482;54.396;18.590;2022-08-11T13:41:55;1.30;;;1.05;;
16727;SDS011;8482;54.396;18.590;2022-08-11T13:44:27;1.20;;;0.90;;
16727;SDS011;8482;54.396;18.590;2022-08-11T13:47:01;1.10;;;0.90;;
16727;SDS011;8482;54.396;18.590;2022-08-11T13:49:31;0.80;;;0.80;;
16727;SDS011;8482;54.396;18.590;2022-08-11T13:52:01;1.33;;;0.98;;
16727;SDS011;8482;54.396;18.590;2022-08-11T13:54:31;0.85;;;0.80;;
16727;SDS011;8482;54.396;18.590;2022-08-11T13:57:04;0.82;;;0.82;;
16727;SDS011;8482;54.396;18.590;2022-08-11T13:59:33;0.95;;;0.85;;
16727;SDS011;8482;54.396;18.590;2022-08-11T14:02:02;1.17;;;0.90;;
16727;SDS011;8482;54.396;18.590;2022-08-11T14:04:42;1.13;;;0.90;;
16727;SDS011;8482;54.396;18.590;2022-08-11T14:07:23;1.15;;;0.80;;
16727;SDS011;8482;54.396;18.590;2022-08-11T14:10:06;1.15;;;0.95;;
16727;SDS011;8482;54.396;18.590;2022-08-11T14:12:36;0.70;;;0.70;;
16727;SDS011;8482;54.396;18.590;2022-08-11T14:15:33;0.80;;;0.80;;
16727;SDS011;8482;54.396;18.590;2022-08-11T14:18:04;0.70;;;0.70;;
16727;SDS011;8482;54.396;18.590;2022-08-11T14:20:36;0.95;;;0.95;;
16727;SDS011;8482;54.396;18.590;2022-08-11T14:23:31;1.17;;;0.93;;
16727;SDS011;8482;54.396;18.590;2022-08-11T14:26:09;1.02;;;0.88;;
16727;SDS011;8482;54.396;18.590;2022-08-11T14:28:47;2.20;;;1.50;;
16727;SDS011;8482;54.396;18.590;2022-08-11T14:31:19;1.20;;;0.93;;
16727;SDS011;8482;54.396;18.590;2022-08-11T14:33:47;1.58;;;1.10;;
16727;SDS011;8482;54.396;18.590;2022-08-11T14:36:17;1.17;;;1.08;;
16727;SDS011;8482;54.396;18.590;2022-08-11T14:38:45;1.15;;;1.05;;
16727;SDS011;8482;54.396;18.590;2022-08-11T14:41:13;1.05;;;0.90;;
16727;SDS011;8482;54.396;18.590;2022-08-11T14:43:59;1.17;;;1.00;;
16727;SDS011;8482;54.396;18.590;2022-08-11T14:46:45;1.10;;;1.02;;
16727;SDS011;8482;54.396;18.590;2022-08-11T14:49:29;1.60;;;1.00;;
16727;SDS011;8482;54.396;18.590;2022-08-11T14:52:05;0.93;;;0.93;;
16727;SDS011;8482;54.396;18.590;2022-08-11T14:54:38;0.90;;;0.80;;
16727;SDS011;8482;54.396;18.590;2022-08-11T14:57:28;1.13;;;0.90;;
16727;SDS011;8482;54.396;18.590;2022-08-11T15:00:00;1.10;;;1.00;;
16727;SDS011;8482;54.396;18.590;2022-08-11T15:02:30;1.52;;;1.00;;
16727;SDS011;8482;54.396;18.590;2022-08-11T15:05:19;1.42;;;1.10;;
16727;SDS011;8482;54.396;18.590;2022-08-11T15:07:47;2.10;;;1.60;;
16727;SDS011;8482;54.396;18.590;2022-08-11T15:10:15;1.20;;;1.10;;
16727;SDS011;8482;54.396;18.590;2022-08-11T15:12:43;1.63;;;1.00;;
16727;SDS011;8482;54.396;18.590;2022-08-11T15:15:11;2.38;;;1.13;;
16727;SDS011;8482;54.396;18.590;2022-08-11T15:17:58;0.80;;;0.80;;
16727;SDS011;8482;54.396;18.590;2022-08-11T15:20:29;1.08;;;0.95;;
16727;SDS011;8482;54.396;18.590;2022-08-11T15:23:14;0.90;;;0.90;;
16727;SDS011;8482;54.396;18.590;2022-08-11T15:26:02;1.08;;;0.98;;
16727;SDS011;8482;54.396;18.590;2022-08-11T15:28:36;1.48;;;0.98;;
16727;SDS011;8482;54.396;18.590;2022-08-11T15:31:30;1.35;;;1.00;;
16727;SDS011;8482;54.396;18.590;2022-08-11T15:34:18;0.98;;;0.98;;
16727;SDS011;8482;54.396;18.590;2022-08-11T15:37:09;2.33;;;1.10;;
16727;SDS011;8482;54.396;18.590;2022-08-11T15:43:15;1.55;;;1.17;;
16727;SDS011;8482;54.396;18.590;2022-08-11T15:46:12;1.70;;;1.08;;
16727;SDS011;8482;54.396;18.590;2022-08-11T15:48:51;1.90;;;1.10;;
16727;SDS011;8482;54.396;18.590;2022-08-11T15:54:07;1.13;;;1.02;;
16727;SDS011;8482;54.396;18.590;2022-08-11T15:56:44;1.80;;;1.05;;
16727;SDS011;8482;54.396;18.590;2022-08-11T15:59:14;1.88;;;0.90;;
16727;SDS011;8482;54.396;18.590;2022-08-11T16:02:03;1.15;;;1.00;;
16727;SDS011;8482;54.396;18.590;2022-08-11T16:04:51;1.73;;;0.90;;
16727;SDS011;8482;54.396;18.590;2022-08-11T16:07:22;1.05;;;0.85;;
16727;SDS011;8482;54.396;18.590;2022-08-11T16:09:52;1.10;;;1.00;;
16727;SDS011;8482;54.396;18.590;2022-08-11T16:12:27;0.90;;;0.90;;
16727;SDS011;8482;54.396;18.590;2022-08-11T16:15:00;0.70;;;0.70;;
16727;SDS011;8482;54.396;18.590;2022-08-11T16:17:50;0.80;;;0.80;;
16727;SDS011;8482;54.396;18.590;2022-08-11T16:20:29;1.10;;;0.70;;
16727;SDS011;8482;54.396;18.590;2022-08-11T16:23:01;0.98;;;0.90;;
16727;SDS011;8482;54.396;18.590;2022-08-11T16:25:32;1.10;;;1.00;;
16727;SDS011;8482;54.396;18.590;2022-08-11T16:28:01;1.20;;;1.10;;
16727;SDS011;8482;54.396;18.590;2022-08-11T16:30:34;1.15;;;1.05;;
16727;SDS011;8482;54.396;18.590;2022-08-11T16:33:04;1.17;;;1.00;;
16727;SDS011;8482;54.396;18.590;2022-08-11T16:35:33;1.02;;;0.90;;
16727;SDS011;8482;54.396;18.590;2022-08-11T16:38:21;1.20;;;1.10;;
16727;SDS011;8482;54.396;18.590;2022-08-11T16:41:10;1.95;;;1.13;;
16727;SDS011;8482;54.396;18.590;2022-08-11T16:44:00;1.00;;;0.90;;
16727;SDS011;8482;54.396;18.590;2022-08-11T16:46:46;1.48;;;1.00;;
16727;SDS011;8482;54.396;18.590;2022-08-11T16:52:01;2.47;;;0.90;;
16727;SDS011;8482;54.396;18.590;2022-08-11T16:54:32;0.90;;;0.90;;
16727;SDS011;8482;54.396;18.590;2022-08-11T16:57:01;1.05;;;0.90;;
16727;SDS011;8482;54.396;18.590;2022-08-11T16:59:52;4.82;;;1.20;;
16727;SDS011;8482;54.396;18.590;2022-08-11T17:02:26;2.58;;;1.13;;
16727;SDS011;8482;54.396;18.590;2022-08-11T17:05:18;1.27;;;1.10;;
16727;SDS011;8482;54.396;18.590;2022-08-11T17:08:07;0.88;;;0.80;;
16727;SDS011;8482;54.396;18.590;2022-08-11T17:10:56;1.20;;;1.08;;
16727;SDS011;8482;54.396;18.590;2022-08-11T17:13:46;1.10;;;1.00;;
16727;SDS011;8482;54.396;18.590;2022-08-11T17:16:19;1.65;;;0.93;;
16727;SDS011;8482;54.396;18.590;2022-08-11T17:21:33;0.98;;;0.90;;
16727;SDS011;8482;54.396;18.590;2022-08-11T17:24:26;1.08;;;0.90;;
16727;SDS011;8482;54.396;18.590;2022-08-11T17:26:55;0.80;;;0.80;;
16727;SDS011;8482;54.396;18.590;2022-08-11T17:29:40;0.93;;;0.85;;
16727;SDS011;8482;54.396;18.590;2022-08-11T17:32:13;1.02;;;0.80;;
16727;SDS011;8482;54.396;18.590;2022-08-11T17:35:03;1.33;;;0.93;;
16727;SDS011;8482;54.396;18.590;2022-08-11T17:37:54;1.08;;;0.88;;
16727;SDS011;8482;54.396;18.590;2022-08-11T17:40:41;0.90;;;0.90;;
16727;SDS011;8482;54.396;18.590;2022-08-11T17:43:30;1.23;;;0.90;;
16727;SDS011;8482;54.396;18.590;2022-08-11T17:46:16;1.65;;;0.90;;
16727;SDS011;8482;54.396;18.590;2022-08-11T17:49:02;1.00;;;0.90;;
16727;SDS011;8482;54.396;18.590;2022-08-11T17:51:31;1.40;;;1.10;;
16727;SDS011;8482;54.396;18.590;2022-08-11T17:54:18;1.10;;;1.00;;
16727;SDS011;8482;54.396;18.590;2022-08-11T17:57:07;1.05;;;0.80;;
16727;SDS011;8482;54.396;18.590;2022-08-11T17:59:52;1.58;;;1.10;;
16727;SDS011;8482;54.396;18.590;2022-08-11T18:05:11;1.00;;;0.90;;
16727;SDS011;8482;54.396;18.590;2022-08-11T18:07:41;1.65;;;1.20;;
16727;SDS011;8482;54.396;18.590;2022-08-11T18:10:30;1.63;;;1.10;;
16727;SDS011;8482;54.396;18.590;2022-08-11T18:13:18;1.40;;;1.00;;
16727;SDS011;8482;54.396;18.590;2022-08-11T18:16:06;1.45;;;1.20;;
16727;SDS011;8482;54.396;18.590;2022-08-11T18:18:51;1.80;;;1.23;;
16727;SDS011;8482;54.396;18.590;2022-08-11T18:21:36;1.73;;;1.30;;
16727;SDS011;8482;54.396;18.590;2022-08-11T18:24:25;1.42;;;1.20;;
16727;SDS011;8482;54.396;18.590;2022-08-11T18:27:17;3.58;;;1.42;;
16727;SDS011;8482;54.396;18.590;2022-08-11T18:30:05;2.88;;;1.40;;
16727;SDS011;8482;54.396;18.590;2022-08-11T18:32:51;2.20;;;1.55;;
16727;SDS011;8482;54.396;18.590;2022-08-11T18:35:43;2.15;;;1.30;;
16727;SDS011;8482;54.396;18.590;2022-08-11T18:38:38;2.33;;;1.42;;
16727;SDS011;8482;54.396;18.590;2022-08-11T18:41:26;2.03;;;1.30;;
16727;SDS011;8482;54.396;18.590;2022-08-11T18:44:17;2.67;;;1.40;;
16727;SDS011;8482;54.396;18.590;2022-08-11T18:47:09;1.83;;;1.30;;
16727;SDS011;8482;54.396;18.590;2022-08-11T18:49:57;2.47;;;1.40;;
16727;SDS011;8482;54.396;18.590;2022-08-11T18:52:46;1.58;;;1.25;;
16727;SDS011;8482;54.396;18.590;2022-08-11T18:55:35;2.35;;;1.30;;
16727;SDS011;8482;54.396;18.590;2022-08-11T18:58:22;2.28;;;1.20;;
16727;SDS011;8482;54.396;18.590;2022-08-11T19:01:13;2.08;;;1.35;;
16727;SDS011;8482;54.396;18.590;2022-08-11T19:04:03;2.80;;;1.60;;
16727;SDS011;8482;54.396;18.590;2022-08-11T19:06:51;3.13;;;1.70;;
16727;SDS011;8482;54.396;18.590;2022-08-11T19:09:41;3.47;;;1.63;;
16727;SDS011;8482;54.396;18.590;2022-08-11T19:12:30;2.70;;;1.63;;
